sensor_id;sensor_type;location;lat;lon;timestamp;pressure;altitude;pressure_sealevel;temperature;humidity
9423;BME280;4750;49.506;10.400;2022-07-29T00:02:26;97822.28;;;19.94;48.88
9423;BME280;4750;49.506;10.400;2022-07-29T00:05:10;97807.47;;;19.84;49.04
9423;BME280;4750;49.506;10.400;2022-07-29T00:07:57;97818.25;;;19.86;48.98
9423;BME280;4750;49.506;10.400;2022-07-29T00:10:41;97809.94;;;19.78;49.09
9423;BME280;4750;49.506;10.400;2022-07-29T00:13:25;97803.28;;;19.73;49.25
9423;BME280;4750;49.506;10.400;2022-07-29T00:16:09;97802.28;;;19.69;49.43
9423;BME280;4750;49.506;10.400;2022-07-29T00:18:53;97846.34;;;19.91;49.44
9423;BME280;4750;49.506;10.400;2022-07-29T00:21:37;97848.00;;;20.20;49.09
9423;BME280;4750;49.506;10.400;2022-07-29T00:24:21;97843.81;;;20.09;49.16
9423;BME280;4750;49.506;10.400;2022-07-29T00:27:05;97860.84;;;20.21;49.16
9423;BME280;4750;49.506;10.400;2022-07-29T00:29:50;97840.72;;;20.05;48.98
9423;BME280;4750;49.506;10.400;2022-07-29T00:32:34;97840.63;;;19.91;49.11
9423;BME280;4750;49.506;10.400;2022-07-29T00:35:18;97854.38;;;19.95;49.36
9423;BME280;4750;49.506;10.400;2022-07-29T00:38:21;97819.03;;;19.63;49.84
9423;BME280;4750;49.506;10.400;2022-07-29T00:41:05;97817.06;;;19.53;49.88
9423;BME280;4750;49.506;10.400;2022-07-29T00:43:48;97803.56;;;19.42;49.96
9423;BME280;4750;49.506;10.400;2022-07-29T00:46:32;97844.03;;;19.52;50.24
9423;BME280;4750;49.506;10.400;2022-07-29T00:49:16;97816.97;;;19.27;50.67
9423;BME280;4750;49.506;10.400;2022-07-29T00:52:04;97775.66;;;18.91;51.37
9423;BME280;4750;49.506;10.400;2022-07-29T00:54:48;97773.69;;;18.93;51.61
9423;BME280;4750;49.506;10.400;2022-07-29T00:57:33;97848.41;;;19.30;51.95
9423;BME280;4750;49.506;10.400;2022-07-29T01:00:19;97838.00;;;19.34;51.80
9423;BME280;4750;49.506;10.400;2022-07-29T01:03:04;97790.50;;;19.01;52.21
9423;BME280;4750;49.506;10.400;2022-07-29T01:05:48;97841.69;;;19.25;52.51
9423;BME280;4750;49.506;10.400;2022-07-29T01:08:32;97799.66;;;19.00;52.68
9423;BME280;4750;49.506;10.400;2022-07-29T01:11:17;97826.09;;;19.02;52.95
9423;BME280;4750;49.506;10.400;2022-07-29T01:14:02;97815.25;;;18.87;52.69
9423;BME280;4750;49.506;10.400;2022-07-29T01:17:17;97817.84;;;18.95;53.21
9423;BME280;4750;49.506;10.400;2022-07-29T01:32:18;97824.94;;;18.60;54.83
9423;BME280;4750;49.506;10.400;2022-07-29T01:35:10;97805.44;;;18.33;54.97
9423;BME280;4750;49.506;10.400;2022-07-29T01:38:10;97817.06;;;18.37;55.23
9423;BME280;4750;49.506;10.400;2022-07-29T01:41:05;97806.03;;;18.19;55.40
9423;BME280;4750;49.506;10.400;2022-07-29T01:43:56;97784.09;;;17.98;55.53
9423;BME280;4750;49.506;10.400;2022-07-29T01:46:46;97810.72;;;17.93;55.87
9423;BME280;4750;49.506;10.400;2022-07-29T01:49:36;97788.34;;;17.66;55.91
9423;BME280;4750;49.506;10.400;2022-07-29T01:52:32;97775.47;;;17.53;56.29
9423;BME280;4750;49.506;10.400;2022-07-29T01:55:20;97815.78;;;17.73;56.48
9423;BME280;4750;49.506;10.400;2022-07-29T01:58:06;97817.22;;;17.62;57.00
9423;BME280;4750;49.506;10.400;2022-07-29T02:00:52;97805.88;;;17.62;57.12
9423;BME280;4750;49.506;10.400;2022-07-29T02:03:39;97811.72;;;17.54;57.26
9423;BME280;4750;49.506;10.400;2022-07-29T02:06:27;97812.59;;;17.35;57.74
9423;BME280;4750;49.506;10.400;2022-07-29T02:09:13;97793.47;;;17.14;58.04
9423;BME280;4750;49.506;10.400;2022-07-29T02:12:00;97804.94;;;17.16;58.26
9423;BME280;4750;49.506;10.400;2022-07-29T02:14:49;97808.81;;;17.21;58.52
9423;BME280;4750;49.506;10.400;2022-07-29T02:17:39;97819.31;;;17.09;58.25
9423;BME280;4750;49.506;10.400;2022-07-29T02:20:25;97823.03;;;17.11;58.12
9423;BME280;4750;49.506;10.400;2022-07-29T02:23:11;97706.91;;;15.99;58.60
9423;BME280;4750;49.506;10.400;2022-07-29T02:25:57;97800.50;;;16.62;58.89
9423;BME280;4750;49.506;10.400;2022-07-29T02:28:43;97821.81;;;16.73;59.39
9423;BME280;4750;49.506;10.400;2022-07-29T02:31:33;97804.16;;;16.33;59.71
9423;BME280;4750;49.506;10.400;2022-07-29T02:34:19;97818.44;;;16.45;60.21
9423;BME280;4750;49.506;10.400;2022-07-29T02:37:04;97821.72;;;16.42;60.27
9423;BME280;4750;49.506;10.400;2022-07-29T02:39:50;97808.63;;;16.27;60.49
9423;BME280;4750;49.506;10.400;2022-07-29T02:42:36;97788.53;;;16.13;60.72
9423;BME280;4750;49.506;10.400;2022-07-29T02:45:21;97789.13;;;16.01;60.81
9423;BME280;4750;49.506;10.400;2022-07-29T02:48:10;97795.25;;;15.98;61.16
9423;BME280;4750;49.506;10.400;2022-07-29T02:51:05;97817.72;;;16.25;61.48
9423;BME280;4750;49.506;10.400;2022-07-29T02:53:53;97777.97;;;15.94;61.50
9423;BME280;4750;49.506;10.400;2022-07-29T02:56:39;97821.28;;;16.35;61.64
9423;BME280;4750;49.506;10.400;2022-07-29T02:59:26;97819.66;;;16.32;61.58
9423;BME280;4750;49.506;10.400;2022-07-29T03:02:12;97778.56;;;16.02;61.65
9423;BME280;4750;49.506;10.400;2022-07-29T03:04:58;97790.47;;;16.10;61.44
9423;BME280;4750;49.506;10.400;2022-07-29T03:07:47;97816.53;;;16.28;61.44
9423;BME280;4750;49.506;10.400;2022-07-29T03:10:32;97795.84;;;16.06;61.84
9423;BME280;4750;49.506;10.400;2022-07-29T03:13:16;97804.78;;;16.12;62.12
9423;BME280;4750;49.506;10.400;2022-07-29T03:16:01;97806.25;;;16.23;62.35
9423;BME280;4750;49.506;10.400;2022-07-29T03:18:47;97797.31;;;16.07;62.19
9423;BME280;4750;49.506;10.400;2022-07-29T03:21:31;97785.56;;;16.01;62.04
9423;BME280;4750;49.506;10.400;2022-07-29T03:24:30;97819.53;;;16.21;62.32
9423;BME280;4750;49.506;10.400;2022-07-29T03:27:15;97804.19;;;16.14;62.53
9423;BME280;4750;49.506;10.400;2022-07-29T03:29:59;97795.97;;;16.08;62.61
9423;BME280;4750;49.506;10.400;2022-07-29T03:32:43;97777.50;;;15.97;62.60
9423;BME280;4750;49.506;10.400;2022-07-29T03:35:27;97796.72;;;15.99;62.65
9423;BME280;4750;49.506;10.400;2022-07-29T03:38:11;97809.09;;;16.13;62.90
9423;BME280;4750;49.506;10.400;2022-07-29T03:40:59;97815.81;;;15.98;62.66
9423;BME280;4750;49.506;10.400;2022-07-29T03:43:46;97808.19;;;15.81;63.16
9423;BME280;4750;49.506;10.400;2022-07-29T03:46:33;97820.25;;;15.72;63.59
9423;BME280;4750;49.506;10.400;2022-07-29T03:49:19;97842.88;;;15.72;64.10
9423;BME280;4750;49.506;10.400;2022-07-29T03:52:04;97819.94;;;15.58;64.23
9423;BME280;4750;49.506;10.400;2022-07-29T03:54:49;97803.81;;;15.41;64.52
9423;BME280;4750;49.506;10.400;2022-07-29T03:57:34;97814.38;;;15.41;64.67
9423;BME280;4750;49.506;10.400;2022-07-29T04:00:18;97815.25;;;15.33;64.74
9423;BME280;4750;49.506;10.400;2022-07-29T04:03:03;97836.25;;;15.40;64.84
9423;BME280;4750;49.506;10.400;2022-07-29T04:05:58;97821.59;;;15.14;65.27
9423;BME280;4750;49.506;10.400;2022-07-29T04:08:43;97812.50;;;15.06;65.52
9423;BME280;4750;49.506;10.400;2022-07-29T04:11:27;97831.41;;;15.13;65.60
9423;BME280;4750;49.506;10.400;2022-07-29T04:14:11;97807.72;;;14.99;66.17
9423;BME280;4750;49.506;10.400;2022-07-29T04:16:54;97815.31;;;15.06;66.20
9423;BME280;4750;49.506;10.400;2022-07-29T04:19:39;97812.84;;;15.20;66.04
9423;BME280;4750;49.506;10.400;2022-07-29T04:22:23;97812.56;;;15.26;65.95
9423;BME280;4750;49.506;10.400;2022-07-29T04:25:07;97840.88;;;15.36;66.11
9423;BME280;4750;49.506;10.400;2022-07-29T04:27:51;97814.03;;;15.17;66.11
9423;BME280;4750;49.506;10.400;2022-07-29T04:30:44;97833.09;;;15.26;66.22
9423;BME280;4750;49.506;10.400;2022-07-29T04:33:29;97830.16;;;15.34;66.30
9423;BME280;4750;49.506;10.400;2022-07-29T04:36:12;97841.59;;;15.36;66.27
9423;BME280;4750;49.506;10.400;2022-07-29T04:38:56;97834.31;;;15.33;66.62
9423;BME280;4750;49.506;10.400;2022-07-29T04:41:40;97838.53;;;15.52;66.95
9423;BME280;4750;49.506;10.400;2022-07-29T04:44:24;97815.53;;;15.28;66.26
9423;BME280;4750;49.506;10.400;2022-07-29T04:47:08;97818.97;;;15.36;66.21
9423;BME280;4750;49.506;10.400;2022-07-29T04:49:52;97829.91;;;15.49;66.48
9423;BME280;4750;49.506;10.400;2022-07-29T04:52:36;97811.13;;;15.54;66.54
9423;BME280;4750;49.506;10.400;2022-07-29T04:55:20;97831.56;;;15.72;66.16
9423;BME280;4750;49.506;10.400;2022-07-29T04:58:04;97840.97;;;15.84;66.07
9423;BME280;4750;49.506;10.400;2022-07-29T05:00:49;97843.66;;;15.92;66.08
9423;BME280;4750;49.506;10.400;2022-07-29T05:03:34;97828.03;;;16.21;65.67
9423;BME280;4750;49.506;10.400;2022-07-29T05:06:17;97845.69;;;16.60;65.10
9423;BME280;4750;49.506;10.400;2022-07-29T05:09:01;97817.94;;;16.68;63.77
9423;BME280;4750;49.506;10.400;2022-07-29T05:11:46;97825.09;;;17.11;62.62
9423;BME280;4750;49.506;10.400;2022-07-29T05:14:30;97846.22;;;18.04;61.44
9423;BME280;4750;49.506;10.400;2022-07-29T05:17:14;97829.41;;;19.82;58.74
9423;BME280;4750;49.506;10.400;2022-07-29T05:19:58;97832.25;;;22.24;52.20
9423;BME280;4750;49.506;10.400;2022-07-29T05:22:42;97847.66;;;23.90;46.62
9423;BME280;4750;49.506;10.400;2022-07-29T05:25:27;97858.50;;;25.38;42.51
9423;BME280;4750;49.506;10.400;2022-07-29T05:28:11;97852.47;;;26.12;40.77
9423;BME280;4750;49.506;10.400;2022-07-29T05:30:55;97835.03;;;27.75;37.18
9423;BME280;4750;49.506;10.400;2022-07-29T05:33:40;97835.22;;;28.71;34.39
9423;BME280;4750;49.506;10.400;2022-07-29T05:36:24;97832.78;;;29.60;32.82
9423;BME280;4750;49.506;10.400;2022-07-29T05:39:08;97831.50;;;29.69;32.19
9423;BME280;4750;49.506;10.400;2022-07-29T05:41:52;97831.97;;;30.37;30.82
9423;BME280;4750;49.506;10.400;2022-07-29T05:44:37;97843.72;;;30.98;30.12
9423;BME280;4750;49.506;10.400;2022-07-29T05:47:23;97847.94;;;30.89;29.88
9423;BME280;4750;49.506;10.400;2022-07-29T05:50:07;97830.56;;;31.44;28.75
9423;BME280;4750;49.506;10.400;2022-07-29T05:52:52;97835.66;;;32.15;28.61
9423;BME280;4750;49.506;10.400;2022-07-29T05:55:35;97839.88;;;33.00;26.97
9423;BME280;4750;49.506;10.400;2022-07-29T05:58:20;97827.78;;;33.59;25.73
9423;BME280;4750;49.506;10.400;2022-07-29T06:01:04;97829.25;;;33.60;26.12
9423;BME280;4750;49.506;10.400;2022-07-29T06:03:48;97843.56;;;33.05;26.53
9423;BME280;4750;49.506;10.400;2022-07-29T06:06:33;97819.69;;;33.27;25.84
9423;BME280;4750;49.506;10.400;2022-07-29T06:09:17;97832.66;;;32.99;26.28
9423;BME280;4750;49.506;10.400;2022-07-29T06:12:02;97838.31;;;32.74;26.76
9423;BME280;4750;49.506;10.400;2022-07-29T06:14:46;97844.13;;;32.78;26.72
9423;BME280;4750;49.506;10.400;2022-07-29T06:17:30;97841.09;;;32.60;27.22
9423;BME280;4750;49.506;10.400;2022-07-29T06:20:13;97834.19;;;31.45;28.51
9423;BME280;4750;49.506;10.400;2022-07-29T06:22:59;97827.03;;;32.23;28.07
9423;BME280;4750;49.506;10.400;2022-07-29T06:25:43;97826.81;;;32.97;27.35
9423;BME280;4750;49.506;10.400;2022-07-29T06:28:27;97830.03;;;32.36;27.64
9423;BME280;4750;49.506;10.400;2022-07-29T06:31:11;97837.22;;;31.00;28.45
9423;BME280;4750;49.506;10.400;2022-07-29T06:33:55;97822.72;;;30.98;29.82
9423;BME280;4750;49.506;10.400;2022-07-29T06:36:40;97815.09;;;30.68;29.58
9423;BME280;4750;49.506;10.400;2022-07-29T06:39:24;97824.25;;;30.07;30.19
9423;BME280;4750;49.506;10.400;2022-07-29T06:42:08;97816.09;;;27.68;34.14
9423;BME280;4750;49.506;10.400;2022-07-29T06:44:53;97825.56;;;26.70;36.05
9423;BME280;4750;49.506;10.400;2022-07-29T06:47:37;97820.28;;;26.40;38.21
9423;BME280;4750;49.506;10.400;2022-07-29T06:50:21;97836.16;;;28.19;35.89
9423;BME280;4750;49.506;10.400;2022-07-29T06:53:05;97843.88;;;30.13;33.55
9423;BME280;4750;49.506;10.400;2022-07-29T06:55:50;97843.53;;;30.84;31.23
9423;BME280;4750;49.506;10.400;2022-07-29T06:58:35;97842.41;;;29.73;32.31
9423;BME280;4750;49.506;10.400;2022-07-29T07:01:19;97832.69;;;28.85;33.55
9423;BME280;4750;49.506;10.400;2022-07-29T07:04:03;97820.13;;;28.42;34.01
9423;BME280;4750;49.506;10.400;2022-07-29T07:06:48;97829.00;;;27.14;36.20
9423;BME280;4750;49.506;10.400;2022-07-29T07:09:31;97831.97;;;26.24;38.83
9423;BME280;4750;49.506;10.400;2022-07-29T07:12:16;97827.13;;;26.06;39.05
9423;BME280;4750;49.506;10.400;2022-07-29T07:15:00;97827.44;;;27.09;39.42
9423;BME280;4750;49.506;10.400;2022-07-29T07:17:44;97832.09;;;27.47;37.28
9423;BME280;4750;49.506;10.400;2022-07-29T07:20:29;97832.00;;;27.69;37.80
9423;BME280;4750;49.506;10.400;2022-07-29T07:23:13;97801.88;;;28.33;36.62
9423;BME280;4750;49.506;10.400;2022-07-29T07:25:57;97810.59;;;28.65;35.96
9423;BME280;4750;49.506;10.400;2022-07-29T07:28:41;97802.91;;;27.59;36.83
9423;BME280;4750;49.506;10.400;2022-07-29T07:31:25;97832.84;;;28.30;37.54
9423;BME280;4750;49.506;10.400;2022-07-29T07:34:09;97788.91;;;28.64;36.60
9423;BME280;4750;49.506;10.400;2022-07-29T07:36:53;97808.91;;;28.89;35.49
9423;BME280;4750;49.506;10.400;2022-07-29T07:39:37;97814.88;;;28.97;35.25
9423;BME280;4750;49.506;10.400;2022-07-29T07:42:21;97801.03;;;28.91;35.33
9423;BME280;4750;49.506;10.400;2022-07-29T07:45:05;97797.50;;;27.73;36.05
9423;BME280;4750;49.506;10.400;2022-07-29T07:47:50;97810.03;;;27.84;37.56
9423;BME280;4750;49.506;10.400;2022-07-29T07:50:34;97803.38;;;27.77;37.32
9423;BME280;4750;49.506;10.400;2022-07-29T07:53:18;97798.31;;;27.23;37.71
9423;BME280;4750;49.506;10.400;2022-07-29T07:56:02;97829.72;;;28.20;37.77
9423;BME280;4750;49.506;10.400;2022-07-29T07:58:48;97797.09;;;28.13;37.10
9423;BME280;4750;49.506;10.400;2022-07-29T08:01:32;97811.81;;;28.26;36.43
9423;BME280;4750;49.506;10.400;2022-07-29T08:04:16;97811.94;;;28.32;36.92
9423;BME280;4750;49.506;10.400;2022-07-29T08:07:00;97799.50;;;27.95;37.14
9423;BME280;4750;49.506;10.400;2022-07-29T08:09:44;97813.53;;;28.37;36.10
9423;BME280;4750;49.506;10.400;2022-07-29T08:12:28;97776.63;;;28.64;35.85
9423;BME280;4750;49.506;10.400;2022-07-29T08:15:12;97799.66;;;29.29;35.04
9423;BME280;4750;49.506;10.400;2022-07-29T08:17:56;97801.53;;;28.79;35.64
9423;BME280;4750;49.506;10.400;2022-07-29T08:20:40;97779.56;;;28.66;36.19
9423;BME280;4750;49.506;10.400;2022-07-29T08:23:23;97774.00;;;29.47;35.60
9423;BME280;4750;49.506;10.400;2022-07-29T08:26:08;97794.72;;;29.74;34.12
9423;BME280;4750;49.506;10.400;2022-07-29T08:28:57;97804.69;;;29.28;34.90
9423;BME280;4750;49.506;10.400;2022-07-29T08:31:41;97822.91;;;29.00;35.17
9423;BME280;4750;49.506;10.400;2022-07-29T08:34:26;97817.41;;;28.20;36.02
9423;BME280;4750;49.506;10.400;2022-07-29T08:37:10;97807.56;;;27.72;37.63
9423;BME280;4750;49.506;10.400;2022-07-29T08:39:54;97799.75;;;28.05;37.02
9423;BME280;4750;49.506;10.400;2022-07-29T08:42:37;97792.78;;;28.14;36.42
9423;BME280;4750;49.506;10.400;2022-07-29T08:45:22;97821.63;;;28.14;36.95
9423;BME280;4750;49.506;10.400;2022-07-29T08:48:09;97793.72;;;27.95;36.67
9423;BME280;4750;49.506;10.400;2022-07-29T08:50:54;97801.19;;;28.65;36.31
9423;BME280;4750;49.506;10.400;2022-07-29T08:53:41;97765.50;;;28.20;35.46
9423;BME280;4750;49.506;10.400;2022-07-29T08:56:26;97794.00;;;28.36;36.24
9423;BME280;4750;49.506;10.400;2022-07-29T08:59:11;97831.22;;;28.84;35.48
9423;BME280;4750;49.506;10.400;2022-07-29T09:01:57;97801.47;;;28.16;36.47
9423;BME280;4750;49.506;10.400;2022-07-29T09:04:43;97804.09;;;28.99;36.20
9423;BME280;4750;49.506;10.400;2022-07-29T09:07:28;97804.44;;;29.52;35.52
9423;BME280;4750;49.506;10.400;2022-07-29T09:10:12;97816.75;;;29.92;34.73
9423;BME280;4750;49.506;10.400;2022-07-29T09:12:57;97799.72;;;28.96;35.55
9423;BME280;4750;49.506;10.400;2022-07-29T09:15:42;97785.91;;;28.60;35.30
9423;BME280;4750;49.506;10.400;2022-07-29T09:21:19;97800.63;;;29.05;35.92
9423;BME280;4750;49.506;10.400;2022-07-29T09:24:23;97800.56;;;29.78;34.21
9423;BME280;4750;49.506;10.400;2022-07-29T09:27:10;97787.78;;;30.34;33.21
9423;BME280;4750;49.506;10.400;2022-07-29T09:32:56;97809.00;;;29.27;34.91
9423;BME280;4750;49.506;10.400;2022-07-29T09:35:40;97790.94;;;29.27;34.10
9423;BME280;4750;49.506;10.400;2022-07-29T09:38:24;97772.19;;;29.28;34.12
9423;BME280;4750;49.506;10.400;2022-07-29T09:41:08;97786.44;;;29.19;33.84
9423;BME280;4750;49.506;10.400;2022-07-29T09:43:58;97787.44;;;29.32;34.26
9423;BME280;4750;49.506;10.400;2022-07-29T09:47:00;97775.25;;;28.67;34.33
9423;BME280;4750;49.506;10.400;2022-07-29T09:49:58;97802.84;;;27.85;34.83
9423;BME280;4750;49.506;10.400;2022-07-29T09:52:51;97785.31;;;27.22;36.24
9423;BME280;4750;49.506;10.400;2022-07-29T09:55:48;97794.19;;;27.85;35.17
9423;BME280;4750;49.506;10.400;2022-07-29T09:58:33;97789.69;;;28.37;34.87
9423;BME280;4750;49.506;10.400;2022-07-29T10:01:27;97807.09;;;29.40;33.91
9423;BME280;4750;49.506;10.400;2022-07-29T10:04:11;97786.09;;;29.76;31.20
9423;BME280;4750;49.506;10.400;2022-07-29T10:07:00;97790.59;;;29.85;32.01
9423;BME280;4750;49.506;10.400;2022-07-29T10:09:55;97796.88;;;30.61;30.93
9423;BME280;4750;49.506;10.400;2022-07-29T10:13:00;97794.38;;;31.49;29.60
9423;BME280;4750;49.506;10.400;2022-07-29T10:15:44;97767.00;;;29.61;29.90
9423;BME280;4750;49.506;10.400;2022-07-29T10:18:29;97766.09;;;29.91;30.18
9423;BME280;4750;49.506;10.400;2022-07-29T10:21:14;97753.53;;;30.18;29.60
9423;BME280;4750;49.506;10.400;2022-07-29T10:23:59;97773.63;;;31.10;28.84
9423;BME280;4750;49.506;10.400;2022-07-29T10:26:49;97783.56;;;30.95;29.66
9423;BME280;4750;49.506;10.400;2022-07-29T10:29:34;97769.00;;;30.86;30.45
9423;BME280;4750;49.506;10.400;2022-07-29T10:32:39;97754.34;;;30.76;30.28
9423;BME280;4750;49.506;10.400;2022-07-29T10:39:25;97763.31;;;32.44;27.96
9423;BME280;4750;49.506;10.400;2022-07-29T10:42:21;97721.97;;;32.50;27.90
9423;BME280;4750;49.506;10.400;2022-07-29T10:45:07;97752.47;;;32.55;27.88
9423;BME280;4750;49.506;10.400;2022-07-29T10:48:04;97741.53;;;32.45;27.36
9423;BME280;4750;49.506;10.400;2022-07-29T10:51:03;97759.91;;;31.82;28.52
9423;BME280;4750;49.506;10.400;2022-07-29T10:53:52;97746.72;;;31.65;28.13
9423;BME280;4750;49.506;10.400;2022-07-29T10:56:36;97749.13;;;31.95;27.39
9423;BME280;4750;49.506;10.400;2022-07-29T11:05:20;97688.34;;;31.28;28.11
9423;BME280;4750;49.506;10.400;2022-07-29T11:08:17;97723.94;;;31.38;28.26
9423;BME280;4750;49.506;10.400;2022-07-29T11:14:03;97712.94;;;31.24;29.35
9423;BME280;4750;49.506;10.400;2022-07-29T11:17:01;97737.94;;;30.95;28.73
9423;BME280;4750;49.506;10.400;2022-07-29T11:19:46;97735.53;;;30.75;30.10
9423;BME280;4750;49.506;10.400;2022-07-29T11:22:32;97723.38;;;30.34;29.51
9423;BME280;4750;49.506;10.400;2022-07-29T11:25:18;97739.53;;;30.49;30.84
9423;BME280;4750;49.506;10.400;2022-07-29T11:28:11;97720.72;;;30.48;30.20
9423;BME280;4750;49.506;10.400;2022-07-29T11:30:57;97709.31;;;30.65;29.50
9423;BME280;4750;49.506;10.400;2022-07-29T11:33:42;97732.06;;;30.87;28.99
9423;BME280;4750;49.506;10.400;2022-07-29T11:36:26;97731.09;;;30.68;28.79
9423;BME280;4750;49.506;10.400;2022-07-29T11:39:26;97704.94;;;30.62;29.20
9423;BME280;4750;49.506;10.400;2022-07-29T11:47:57;97699.88;;;29.66;30.39
9423;BME280;4750;49.506;10.400;2022-07-29T11:50:41;97704.97;;;29.68;30.06
9423;BME280;4750;49.506;10.400;2022-07-29T11:53:25;97690.94;;;29.11;31.42
9423;BME280;4750;49.506;10.400;2022-07-29T11:56:12;97709.13;;;29.57;31.52
9423;BME280;4750;49.506;10.400;2022-07-29T11:59:03;97695.97;;;29.47;31.08
9423;BME280;4750;49.506;10.400;2022-07-29T12:01:52;97708.00;;;29.76;30.91
9423;BME280;4750;49.506;10.400;2022-07-29T12:04:54;97714.69;;;29.85;31.31
9423;BME280;4750;49.506;10.400;2022-07-29T12:07:39;97719.03;;;29.45;33.59
9423;BME280;4750;49.506;10.400;2022-07-29T12:10:30;97727.94;;;29.58;36.56
9423;BME280;4750;49.506;10.400;2022-07-29T12:13:15;97704.31;;;28.92;37.46
9423;BME280;4750;49.506;10.400;2022-07-29T12:15:59;97711.50;;;28.57;37.09
9423;BME280;4750;49.506;10.400;2022-07-29T12:18:55;97699.63;;;28.42;35.10
9423;BME280;4750;49.506;10.400;2022-07-29T12:21:47;97720.50;;;28.71;35.72
9423;BME280;4750;49.506;10.400;2022-07-29T12:24:43;97715.34;;;29.02;35.10
9423;BME280;4750;49.506;10.400;2022-07-29T12:27:28;97729.38;;;29.20;34.16
9423;BME280;4750;49.506;10.400;2022-07-29T12:30:13;97735.56;;;28.67;35.37
9423;BME280;4750;49.506;10.400;2022-07-29T12:32:58;97733.69;;;27.30;38.13
9423;BME280;4750;49.506;10.400;2022-07-29T12:35:46;97725.81;;;27.33;38.79
9423;BME280;4750;49.506;10.400;2022-07-29T12:38:30;97722.41;;;27.12;39.70
9423;BME280;4750;49.506;10.400;2022-07-29T12:41:14;97701.72;;;27.20;40.26
9423;BME280;4750;49.506;10.400;2022-07-29T12:44:00;97701.38;;;27.62;39.19
9423;BME280;4750;49.506;10.400;2022-07-29T12:46:44;97693.88;;;28.42;38.09
9423;BME280;4750;49.506;10.400;2022-07-29T12:49:31;97712.06;;;28.16;38.25
9423;BME280;4750;49.506;10.400;2022-07-29T12:52:25;97718.56;;;27.58;38.76
9423;BME280;4750;49.506;10.400;2022-07-29T12:55:09;97679.56;;;27.27;39.04
9423;BME280;4750;49.506;10.400;2022-07-29T12:57:53;97695.56;;;27.32;38.59
9423;BME280;4750;49.506;10.400;2022-07-29T13:00:38;97664.94;;;27.45;38.01
9423;BME280;4750;49.506;10.400;2022-07-29T13:03:22;97641.53;;;27.61;38.10
9423;BME280;4750;49.506;10.400;2022-07-29T13:06:06;97685.75;;;28.32;37.31
9423;BME280;4750;49.506;10.400;2022-07-29T13:09:10;97685.69;;;28.63;36.53
9423;BME280;4750;49.506;10.400;2022-07-29T13:11:54;97693.91;;;28.77;35.51
9423;BME280;4750;49.506;10.400;2022-07-29T13:14:48;97692.94;;;28.66;35.22
9423;BME280;4750;49.506;10.400;2022-07-29T13:17:40;97691.13;;;28.48;34.98
9423;BME280;4750;49.506;10.400;2022-07-29T13:20:28;97678.94;;;28.20;36.08
9423;BME280;4750;49.506;10.400;2022-07-29T13:23:15;97694.66;;;28.12;35.99
9423;BME280;4750;49.506;10.400;2022-07-29T13:26:09;97704.34;;;27.64;37.92
9423;BME280;4750;49.506;10.400;2022-07-29T13:28:54;97697.34;;;26.91;38.67
9423;BME280;4750;49.506;10.400;2022-07-29T13:31:39;97689.66;;;26.73;39.11
9423;BME280;4750;49.506;10.400;2022-07-29T13:34:22;97702.97;;;26.87;39.56
9423;BME280;4750;49.506;10.400;2022-07-29T13:37:08;97700.50;;;27.01;39.22
9423;BME280;4750;49.506;10.400;2022-07-29T13:39:52;97678.72;;;26.94;38.82
9423;BME280;4750;49.506;10.400;2022-07-29T13:42:38;97653.75;;;26.76;38.72
9423;BME280;4750;49.506;10.400;2022-07-29T13:45:22;97650.78;;;26.72;38.98
9423;BME280;4750;49.506;10.400;2022-07-29T13:48:06;97653.41;;;26.64;39.74
9423;BME280;4750;49.506;10.400;2022-07-29T13:50:51;97570.09;;;25.69;41.15
9423;BME280;4750;49.506;10.400;2022-07-29T13:53:35;97616.38;;;26.02;42.50
9423;BME280;4750;49.506;10.400;2022-07-29T13:56:19;97617.59;;;25.72;42.75
9423;BME280;4750;49.506;10.400;2022-07-29T13:59:04;97631.56;;;25.82;42.47
9423;BME280;4750;49.506;10.400;2022-07-29T14:01:48;97592.75;;;25.59;42.84
9423;BME280;4750;49.506;10.400;2022-07-29T14:04:32;97670.03;;;25.95;43.82
9423;BME280;4750;49.506;10.400;2022-07-29T14:07:17;97650.94;;;25.37;46.04
9423;BME280;4750;49.506;10.400;2022-07-29T14:10:01;97688.03;;;24.89;49.80
9423;BME280;4750;49.506;10.400;2022-07-29T14:12:45;97733.56;;;24.40;54.12
9423;BME280;4750;49.506;10.400;2022-07-29T14:15:29;97736.69;;;23.75;56.70
9423;BME280;4750;49.506;10.400;2022-07-29T14:18:13;97722.19;;;22.86;61.14
9423;BME280;4750;49.506;10.400;2022-07-29T14:20:57;97758.63;;;22.38;65.00
9423;BME280;4750;49.506;10.400;2022-07-29T14:23:41;97786.84;;;21.86;67.61
9423;BME280;4750;49.506;10.400;2022-07-29T14:26:26;97783.31;;;21.44;68.88
9423;BME280;4750;49.506;10.400;2022-07-29T14:29:10;97785.53;;;21.31;70.82
9423;BME280;4750;49.506;10.400;2022-07-29T14:31:54;97792.81;;;21.07;71.61
9423;BME280;4750;49.506;10.400;2022-07-29T14:34:38;97811.19;;;20.90;73.66
9423;BME280;4750;49.506;10.400;2022-07-29T14:37:22;97810.81;;;20.44;74.63
9423;BME280;4750;49.506;10.400;2022-07-29T14:40:06;97821.66;;;20.34;75.90
9423;BME280;4750;49.506;10.400;2022-07-29T14:42:51;97841.09;;;20.37;76.47
9423;BME280;4750;49.506;10.400;2022-07-29T14:45:35;97848.25;;;20.38;76.87
9423;BME280;4750;49.506;10.400;2022-07-29T14:48:19;97806.75;;;19.84;76.76
9423;BME280;4750;49.506;10.400;2022-07-29T14:51:03;97837.31;;;19.83;77.25
9423;BME280;4750;49.506;10.400;2022-07-29T14:53:47;97866.66;;;19.86;75.73
9423;BME280;4750;49.506;10.400;2022-07-29T14:56:30;97816.84;;;19.49;75.77
9423;BME280;4750;49.506;10.400;2022-07-29T14:59:14;97838.09;;;19.48;77.01
9423;BME280;4750;49.506;10.400;2022-07-29T15:01:58;97844.31;;;19.21;78.22
9423;BME280;4750;49.506;10.400;2022-07-29T15:04:42;97854.94;;;19.08;79.50
9423;BME280;4750;49.506;10.400;2022-07-29T15:07:28;97853.56;;;18.98;80.61
9423;BME280;4750;49.506;10.400;2022-07-29T15:10:12;97878.31;;;19.19;81.86
9423;BME280;4750;49.506;10.400;2022-07-29T15:12:56;97849.59;;;18.91;82.41
9423;BME280;4750;49.506;10.400;2022-07-29T15:15:41;97866.81;;;19.17;83.33
9423;BME280;4750;49.506;10.400;2022-07-29T15:18:25;97862.63;;;19.30;83.67
9423;BME280;4750;49.506;10.400;2022-07-29T15:21:09;97874.25;;;19.34;83.64
9423;BME280;4750;49.506;10.400;2022-07-29T15:23:53;97869.78;;;19.31;83.67
9423;BME280;4750;49.506;10.400;2022-07-29T15:26:37;97819.19;;;18.93;83.97
9423;BME280;4750;49.506;10.400;2022-07-29T15:29:20;97839.75;;;19.04;83.90